Time;durP1;ratioP1;P1;durP2;ratioP2;P2;SDS_P1;SDS_P2;PMS_P1;PMS_P2;Temp;Humidity;BMP_temperature;BMP_pressure;BME280_temperature;BME280_humidity;BME280_pressure;Samples;Min_cycle;Max_cycle;Signal;HPM_P1;HPM_P2
2023/03/22 00:01:15;;;;;;;13.43;9.48;;;11.90;99.90;;;;;;4954553;28;98781;-74
2023/03/22 00:03:42;;;;;;;9.98;8.82;;;11.90;99.90;;;;;;4955367;28;98558;-74
2023/03/22 00:06:09;;;;;;;13.25;9.32;;;11.90;99.90;;;;;;4955346;28;97752;-74
2023/03/22 00:08:36;;;;;;;12.00;9.85;;;11.90;99.90;;;;;;4969635;28;99260;-74
2023/03/22 00:11:04;;;;;;;12.70;11.10;;;11.90;99.90;;;;;;4969422;28;101513;-74
2023/03/22 00:13:33;;;;;;;14.23;11.98;;;11.90;99.90;;;;;;4969177;28;99361;-74
2023/03/22 00:16:04;;;;;;;14.50;11.23;;;11.90;99.90;;;;;;4951947;28;98623;-74
2023/03/22 00:18:31;;;;;;;14.48;12.32;;;11.90;99.90;;;;;;4953757;28;99363;-74
2023/03/22 00:20:59;;;;;;;15.75;12.40;;;11.90;99.90;;;;;;4952839;28;99051;-74
2023/03/22 00:23:27;;;;;;;15.70;12.00;;;11.90;99.90;;;;;;4954089;28;98553;-74
2023/03/22 00:25:54;;;;;;;18.00;11.07;;;11.90;99.90;;;;;;4969187;28;98597;-74
2023/03/22 00:28:22;;;;;;;14.13;11.18;;;11.90;99.90;;;;;;4953722;28;99101;-74
2023/03/22 00:30:58;;;;;;;14.52;10.85;;;11.90;99.90;;;;;;4952914;28;101736;-74
2023/03/22 00:33:27;;;;;;;11.80;9.95;;;11.90;99.90;;;;;;4953936;28;98486;-74
2023/03/22 00:35:58;;;;;;;14.23;10.02;;;11.90;99.90;;;;;;4952940;28;98626;-74
2023/03/22 00:38:35;;;;;;;11.63;9.02;;;11.80;99.90;;;;;;4967994;28;102764;-75
2023/03/22 00:41:18;;;;;;;12.65;8.98;;;11.80;99.90;;;;;;4954156;28;100086;-74
2023/03/22 00:43:46;;;;;;;12.85;9.10;;;11.70;99.90;;;;;;4969496;28;98550;-74
2023/03/22 00:46:14;;;;;;;13.02;9.40;;;11.70;99.90;;;;;;4969160;28;98573;-74
2023/03/22 00:48:41;;;;;;;12.85;8.55;;;11.60;99.90;;;;;;4968930;28;101640;-74
2023/03/22 00:51:09;;;;;;;12.27;8.25;;;11.60;99.90;;;;;;4952152;28;101594;-74
2023/03/22 00:53:37;;;;;;;14.60;9.23;;;11.60;99.90;;;;;;4954382;28;98466;-74
2023/03/22 00:56:06;;;;;;;11.18;8.07;;;11.60;99.90;;;;;;4937439;28;98542;-74
2023/03/22 00:58:43;;;;;;;12.77;9.10;;;11.60;99.90;;;;;;4952432;28;101632;-74
2023/03/22 01:01:13;;;;;;;14.15;9.20;;;11.50;99.90;;;;;;4935911;28;101719;-74
2023/03/22 01:03:42;;;;;;;16.05;8.63;;;11.50;99.90;;;;;;4953025;28;99282;-74
2023/03/22 01:06:12;;;;;;;11.05;8.65;;;11.50;99.90;;;;;;4936858;28;98588;-74
2023/03/22 01:08:39;;;;;;;14.98;8.82;;;11.50;99.90;;;;;;4952318;28;101803;-74
2023/03/22 01:11:08;;;;;;;13.07;8.50;;;11.50;99.90;;;;;;4953508;28;99072;-74
2023/03/22 01:13:40;;;;;;;10.30;7.18;;;11.40;99.90;;;;;;4968792;28;98520;-74
2023/03/22 01:16:08;;;;;;;9.75;7.50;;;11.40;99.90;;;;;;4936495;28;98675;-74
2023/03/22 01:18:36;;;;;;;11.98;7.20;;;11.40;99.90;;;;;;4952133;28;100397;-74
2023/03/22 01:21:03;;;;;;;11.13;6.47;;;11.40;99.90;;;;;;4936475;28;101051;-74
2023/03/22 01:23:30;;;;;;;8.90;6.95;;;11.40;99.90;;;;;;4952327;28;99083;-74
2023/03/22 01:25:58;;;;;;;10.75;6.78;;;11.40;99.90;;;;;;4952399;28;98701;-74
2023/03/22 01:28:25;;;;;;;10.20;6.75;;;11.40;99.90;;;;;;4951322;28;102296;-74
2023/03/22 01:30:54;;;;;;;10.07;6.35;;;11.40;99.90;;;;;;4951942;28;102536;-74
2023/03/22 01:33:21;;;;;;;12.13;7.30;;;11.40;99.90;;;;;;4952222;28;98592;-74
2023/03/22 01:35:50;;;;;;;12.70;8.20;;;11.40;99.90;;;;;;4952310;28;98612;-74
2023/03/22 01:38:18;;;;;;;11.50;7.70;;;11.30;99.90;;;;;;4951527;28;101836;-74
2023/03/22 01:40:53;;;;;;;9.45;7.38;;;11.40;99.90;;;;;;4968087;28;101439;-74
2023/03/22 01:43:20;;;;;;;10.05;6.93;;;11.40;99.90;;;;;;4968434;28;98616;-74
2023/03/22 01:45:49;;;;;;;10.43;7.00;;;11.40;99.90;;;;;;4952538;28;98198;-74
2023/03/22 01:48:47;;;;;;;13.85;7.35;;;11.40;99.90;;;;;;4951805;28;101605;-74
2023/03/22 01:51:20;;;;;;;11.70;7.05;;;11.40;99.90;;;;;;4951465;28;101449;-74
2023/03/22 01:54:28;;;;;;;13.07;7.53;;;11.30;99.90;;;;;;4968125;28;99475;-74
2023/03/22 01:56:55;;;;;;;11.30;6.95;;;11.30;99.90;;;;;;4952082;28;98694;-74
2023/03/22 01:59:31;;;;;;;11.13;6.68;;;11.30;99.90;;;;;;4951561;28;101375;-74
2023/03/22 02:02:29;;;;;;;10.57;6.53;;;11.30;99.90;;;;;;4962076;28;98699;-74
2023/03/22 02:05:07;;;;;;;11.77;6.85;;;11.20;99.90;;;;;;4968289;28;98462;-74
2023/03/22 02:07:37;;;;;;;11.10;6.88;;;11.30;99.90;;;;;;4951393;28;98994;-74
2023/03/22 02:10:08;;;;;;;9.95;7.00;;;11.30;99.90;;;;;;4967879;28;101649;-74
2023/03/22 02:13:00;;;;;;;11.65;6.38;;;11.30;99.90;;;;;;4951802;28;100055;-74
2023/03/22 02:15:58;;;;;;;10.30;6.82;;;11.30;99.90;;;;;;4952193;28;98714;-74
2023/03/22 02:19:14;;;;;;;11.27;5.72;;;11.20;99.90;;;;;;4952922;28;98541;-74
2023/03/22 02:22:20;;;;;;;11.10;6.18;;;11.30;99.90;;;;;;4951007;28;102751;-74
2023/03/22 02:25:04;;;;;;;10.75;5.80;;;11.20;99.90;;;;;;4951278;28;102303;-74
2023/03/22 02:27:39;;;;;;;8.55;5.10;;;11.20;99.90;;;;;;4951652;28;99472;-74
2023/03/22 02:30:27;;;;;;;11.75;6.03;;;11.10;99.90;;;;;;4953165;28;98536;-74
2023/03/22 02:33:33;;;;;;;9.40;4.78;;;11.20;99.90;;;;;;4952867;28;99439;-74
2023/03/22 02:36:22;;;;;;;9.23;4.97;;;11.20;99.90;;;;;;4967488;28;101344;-74
2023/03/22 02:39:17;;;;;;;6.25;4.60;;;11.20;99.90;;;;;;4951455;28;98572;-74
2023/03/22 02:42:06;;;;;;;9.35;4.68;;;11.20;99.90;;;;;;4935747;28;97940;-74
2023/03/22 02:44:41;;;;;;;10.32;4.75;;;11.10;99.90;;;;;;4950776;28;101811;-74
2023/03/22 02:47:27;;;;;;;9.00;4.82;;;11.20;99.90;;;;;;4952256;28;99068;-74
2023/03/22 02:50:30;;;;;;;8.95;4.53;;;11.20;99.90;;;;;;4967544;28;99332;-74
2023/03/22 02:53:14;;;;;;;7.15;4.35;;;11.20;99.90;;;;;;4939800;28;99859;-74
2023/03/22 02:55:51;;;;;;;9.40;4.20;;;11.10;99.90;;;;;;4952249;28;99413;-74
2023/03/22 02:58:44;;;;;;;6.75;4.05;;;11.10;99.90;;;;;;4950978;28;99929;-74
2023/03/22 03:01:22;;;;;;;9.55;3.60;;;11.10;99.90;;;;;;4951479;28;98617;-74
2023/03/22 03:03:51;;;;;;;7.90;3.90;;;11.10;99.90;;;;;;4950885;28;98569;-74
2023/03/22 03:06:22;;;;;;;11.73;4.18;;;11.10;99.90;;;;;;4967086;28;101957;-74
2023/03/22 03:08:53;;;;;;;9.13;4.03;;;11.10;99.90;;;;;;4951207;28;101008;-74
2023/03/22 03:11:20;;;;;;;13.85;4.30;;;11.10;99.90;;;;;;4951263;28;98595;-74
2023/03/22 03:13:49;;;;;;;8.88;3.88;;;11.10;99.90;;;;;;4935155;28;98626;-74
2023/03/22 03:16:21;;;;;;;11.10;4.47;;;11.10;99.90;;;;;;4954115;28;100033;-74
2023/03/22 03:18:59;;;;;;;10.25;4.03;;;11.10;99.90;;;;;;4954025;28;102357;-74
2023/03/22 03:21:48;;;;;;;10.68;4.30;;;11.10;99.90;;;;;;4954361;28;99062;-74
2023/03/22 03:24:24;;;;;;;9.55;4.00;;;11.10;99.90;;;;;;4954413;28;98546;-74
2023/03/22 03:27:13;;;;;;;7.97;4.05;;;11.10;99.90;;;;;;4955339;28;99419;-74
2023/03/22 03:30:19;;;;;;;9.05;4.50;;;11.10;99.90;;;;;;4953997;28;99045;-74
2023/03/22 03:33:08;;;;;;;9.82;4.22;;;11.10;99.90;;;;;;4955385;28;98447;-74
2023/03/22 03:35:45;;;;;;;10.02;4.40;;;11.10;99.90;;;;;;4955874;28;97835;-74
2023/03/22 03:38:17;;;;;;;12.40;4.75;;;11.10;99.90;;;;;;4955260;28;99322;-74
2023/03/22 03:40:49;;;;;;;9.82;3.70;;;11.10;99.90;;;;;;4955003;28;99013;-74
2023/03/22 03:43:16;;;;;;;10.30;4.10;;;11.10;99.90;;;;;;4953707;28;99208;-74
2023/03/22 03:45:44;;;;;;;11.02;4.63;;;11.00;99.90;;;;;;4953805;28;99245;-74
2023/03/22 03:48:21;;;;;;;9.13;4.32;;;11.10;99.90;;;;;;4969943;28;101931;-74
2023/03/22 03:50:51;;;;;;;5.45;3.72;;;11.10;99.90;;;;;;4953421;28;104274;-74
2023/03/22 03:53:18;;;;;;;9.30;3.85;;;11.10;99.90;;;;;;4954039;28;98504;-74
2023/03/22 03:55:45;;;;;;;6.78;4.00;;;11.10;99.90;;;;;;4953347;28;98620;-74
2023/03/22 03:58:15;;;;;;;12.05;3.92;;;11.10;99.90;;;;;;4953344;28;100434;-74
2023/03/22 04:00:45;;;;;;;9.95;3.80;;;11.10;99.90;;;;;;4953719;28;101482;-74
2023/03/22 04:03:17;;;;;;;7.90;4.40;;;11.10;99.90;;;;;;4953926;28;98685;-74
2023/03/22 04:06:10;;;;;;;5.88;3.80;;;11.10;99.90;;;;;;4938589;28;98962;-74
2023/03/22 04:08:44;;;;;;;6.35;3.55;;;11.10;99.90;;;;;;4952976;28;102305;-74
2023/03/22 04:11:13;;;;;;;6.15;3.72;;;11.10;99.90;;;;;;4953235;28;102307;-74
2023/03/22 04:13:41;;;;;;;10.90;4.43;;;11.10;99.90;;;;;;4953437;28;98560;-74
2023/03/22 04:16:13;;;;;;;11.93;4.25;;;11.10;99.90;;;;;;4937972;28;98911;-74
2023/03/22 04:18:40;;;;;;;13.32;4.07;;;11.10;99.90;;;;;;4952883;28;101547;-74
2023/03/22 04:21:10;;;;;;;8.13;3.47;;;11.20;99.90;;;;;;4953097;28;101505;-74
2023/03/22 04:23:47;;;;;;;9.40;4.30;;;11.20;99.90;;;;;;4953259;28;98625;-74
2023/03/22 04:26:15;;;;;;;6.22;3.95;;;11.20;99.90;;;;;;4953379;28;97830;-74
2023/03/22 04:28:53;;;;;;;5.03;3.40;;;11.20;99.90;;;;;;4969051;28;101763;-74
2023/03/22 04:31:20;;;;;;;9.07;3.65;;;11.20;99.90;;;;;;4969079;28;101370;-74
2023/03/22 04:33:55;;;;;;;7.65;4.45;;;11.20;99.90;;;;;;4952955;28;99262;-74
2023/03/22 04:36:51;;;;;;;8.65;4.45;;;11.20;99.90;;;;;;4948890;28;98623;-74
2023/03/22 04:39:23;;;;;;;8.25;4.20;;;11.20;99.90;;;;;;4952741;28;101903;-74
2023/03/22 04:42:01;;;;;;;8.77;4.38;;;11.20;99.90;;;;;;4952940;28;100931;-74
2023/03/22 04:44:29;;;;;;;8.95;4.72;;;11.20;99.90;;;;;;4953226;28;98601;-74
2023/03/22 04:46:56;;;;;;;7.40;4.72;;;11.20;99.90;;;;;;4952957;28;98672;-74
2023/03/22 04:49:25;;;;;;;6.32;5.28;;;11.20;99.90;;;;;;4952709;28;102183;-74
2023/03/22 04:51:54;;;;;;;11.45;6.90;;;11.30;99.90;;;;;;4952796;28;101515;-74
2023/03/22 04:54:41;;;;;;;12.73;6.60;;;11.30;99.90;;;;;;4952601;28;98604;-74
2023/03/22 04:57:08;;;;;;;11.90;6.95;;;11.30;99.90;;;;;;4952973;28;98651;-74
2023/03/22 04:59:40;;;;;;;12.98;7.68;;;11.30;99.90;;;;;;4952091;28;102123;-74
2023/03/22 05:02:09;;;;;;;13.85;8.50;;;11.30;99.90;;;;;;4952777;28;102291;-74
2023/03/22 05:04:40;;;;;;;11.38;8.57;;;11.30;99.90;;;;;;4937202;28;99067;-74
2023/03/22 05:07:40;;;;;;;14.07;9.75;;;11.40;99.90;;;;;;4940331;28;98681;-74
2023/03/22 05:10:09;;;;;;;14.55;10.75;;;11.30;99.90;;;;;;4952682;28;101336;-74
2023/03/22 05:12:36;;;;;;;13.90;10.27;;;11.30;99.90;;;;;;4951759;28;101572;-74
2023/03/22 05:15:15;;;;;;;15.48;10.65;;;11.30;99.90;;;;;;4951994;28;98620;-74
2023/03/22 05:17:42;;;;;;;14.98;11.48;;;11.30;99.90;;;;;;4935841;28;97928;-74
2023/03/22 05:20:10;;;;;;;14.45;11.43;;;11.30;99.90;;;;;;4967827;28;102284;-74
2023/03/22 05:22:39;;;;;;;16.05;11.02;;;11.40;99.90;;;;;;4968108;28;101411;-74
2023/03/22 05:25:10;;;;;;;17.13;12.10;;;11.40;99.90;;;;;;4968009;28;99578;-74
2023/03/22 05:27:40;;;;;;;17.83;12.18;;;11.30;99.90;;;;;;4967439;28;99136;-74
2023/03/22 05:30:29;;;;;;;17.95;11.90;;;11.40;99.90;;;;;;4951601;28;101273;-74
2023/03/22 05:33:03;;;;;;;19.50;11.93;;;11.40;99.90;;;;;;4967727;28;101398;-74
2023/03/22 05:35:38;;;;;;;19.02;12.77;;;11.40;99.90;;;;;;4968347;28;98958;-74
2023/03/22 05:38:07;;;;;;;14.02;12.07;;;11.40;99.90;;;;;;4967132;28;98643;-74
2023/03/22 05:40:36;;;;;;;16.65;13.07;;;11.40;99.90;;;;;;4967627;28;101598;-74
2023/03/22 05:43:04;;;;;;;16.75;11.73;;;11.40;99.90;;;;;;4967809;28;101087;-74
2023/03/22 05:45:31;;;;;;;17.92;13.40;;;11.40;99.90;;;;;;4967962;28;98632;-74
2023/03/22 05:48:09;;;;;;;17.58;12.43;;;11.40;99.90;;;;;;4936908;28;98681;-74
2023/03/22 05:50:37;;;;;;;16.92;12.98;;;11.50;99.90;;;;;;4934524;28;102595;-74
2023/03/22 05:53:04;;;;;;;18.98;11.20;;;11.50;99.90;;;;;;4967150;28;102638;-74
2023/03/22 05:55:46;;;;;;;14.68;11.98;;;11.50;99.90;;;;;;4967657;28;98641;-74
2023/03/22 05:58:17;;;;;;;16.45;12.00;;;11.40;99.90;;;;;;4967724;28;98796;-74
2023/03/22 06:00:48;;;;;;;14.40;10.35;;;11.50;99.90;;;;;;4935309;28;101867;-74
2023/03/22 06:03:34;;;;;;;15.65;11.18;;;11.50;99.90;;;;;;4963211;28;98547;-74
2023/03/22 06:06:30;;;;;;;14.68;10.85;;;11.50;99.90;;;;;;4944060;28;98706;-74
2023/03/22 06:09:07;;;;;;;14.35;10.05;;;11.50;99.90;;;;;;4952799;28;97931;-74
2023/03/22 06:11:44;;;;;;;15.65;11.05;;;11.50;99.90;;;;;;4952509;28;99293;-74
2023/03/22 06:14:13;;;;;;;17.25;12.65;;;11.50;99.90;;;;;;4967248;28;101289;-74
2023/03/22 06:16:52;;;;;;;14.73;11.25;;;11.60;99.90;;;;;;4966573;28;99302;-74
2023/03/22 06:19:19;;;;;;;16.27;12.20;;;11.60;99.90;;;;;;4952439;28;98530;-74
2023/03/22 06:21:46;;;;;;;15.88;12.27;;;11.60;99.90;;;;;;4934509;28;101821;-74
2023/03/22 06:24:15;;;;;;;16.60;12.10;;;11.60;99.90;;;;;;4950997;28;101300;-74
2023/03/22 06:26:42;;;;;;;15.45;11.27;;;11.60;99.90;;;;;;4967544;28;98637;-74
2023/03/22 06:29:09;;;;;;;15.23;10.07;;;11.60;99.90;;;;;;4952545;28;98870;-74
2023/03/22 06:31:36;;;;;;;15.68;10.45;;;11.60;99.90;;;;;;4934579;28;101734;-74
2023/03/22 06:34:05;;;;;;;16.60;10.60;;;11.70;99.90;;;;;;4966837;28;100984;-74
2023/03/22 06:36:36;;;;;;;16.38;10.35;;;11.60;99.90;;;;;;4951133;28;98534;-74
2023/03/22 06:39:07;;;;;;;12.63;10.43;;;11.60;99.90;;;;;;4967151;28;99057;-74
2023/03/22 06:41:35;;;;;;;16.13;9.95;;;11.60;99.90;;;;;;4966199;28;102299;-74
2023/03/22 06:44:02;;;;;;;13.20;10.60;;;11.70;99.90;;;;;;4952286;28;99733;-74
2023/03/22 06:46:47;;;;;;;12.27;9.55;;;11.80;99.90;;;;;;4952230;28;98534;-74
2023/03/22 06:49:26;;;;;;;13.95;9.90;;;11.90;99.90;;;;;;4953406;28;99141;-74
2023/03/22 06:51:54;;;;;;;14.30;9.73;;;12.00;99.90;;;;;;4938412;28;101707;-74
2023/03/22 06:54:22;;;;;;;11.98;8.80;;;12.20;99.90;;;;;;4954901;28;99969;-74
2023/03/22 06:56:49;;;;;;;11.38;8.85;;;12.50;99.90;;;;;;4922627;28;98636;-74
2023/03/22 06:59:16;;;;;;;9.57;7.70;;;12.70;99.90;;;;;;4954656;28;97901;-74
2023/03/22 07:01:43;;;;;;;12.98;8.02;;;12.90;99.90;;;;;;4954170;28;101977;-74
2023/03/22 07:04:10;;;;;;;12.13;8.40;;;13.10;99.90;;;;;;4970369;28;101472;-74
2023/03/22 07:06:38;;;;;;;11.45;8.02;;;13.10;99.90;;;;;;4954357;28;99381;-74
2023/03/22 07:09:05;;;;;;;10.32;7.63;;;13.20;99.90;;;;;;4970627;28;98532;-74
2023/03/22 07:11:35;;;;;;;10.35;7.40;;;13.20;99.90;;;;;;4954012;28;101446;-74
2023/03/22 07:14:02;;;;;;;8.63;7.47;;;13.30;99.90;;;;;;4953951;28;101583;-74
2023/03/22 07:16:45;;;;;;;8.07;6.90;;;13.40;99.90;;;;;;4954064;28;98575;-74
2023/03/22 07:19:13;;;;;;;10.88;7.63;;;13.50;99.90;;;;;;4938021;28;98515;-74
2023/03/22 07:21:40;;;;;;;8.63;6.57;;;13.50;99.90;;;;;;4955568;28;99236;-74
2023/03/22 07:24:10;;;;;;;9.63;7.50;;;13.60;99.90;;;;;;4938488;28;101076;-74
2023/03/22 07:26:39;;;;;;;9.80;7.40;;;13.70;99.90;;;;;;4954504;28;98494;-74
2023/03/22 07:29:07;;;;;;;11.35;6.88;;;13.70;99.90;;;;;;4970496;28;98911;-74
2023/03/22 07:31:35;;;;;;;9.73;6.97;;;13.70;99.90;;;;;;4969821;28;102266;-74
2023/03/22 07:34:09;;;;;;;8.57;6.70;;;13.80;99.90;;;;;;4953870;28;102220;-74
2023/03/22 07:36:59;;;;;;;7.85;6.28;;;13.90;99.90;;;;;;4954031;28;98638;-74
2023/03/22 07:39:27;;;;;;;10.65;6.57;;;13.90;99.90;;;;;;4969523;28;98548;-74
2023/03/22 07:41:55;;;;;;;9.25;6.18;;;14.00;99.90;;;;;;4969993;28;102036;-74
2023/03/22 07:44:22;;;;;;;9.65;6.03;;;14.10;99.90;;;;;;4953737;28;99085;-74
2023/03/22 07:47:03;;;;;;;11.05;6.72;;;13.90;99.90;;;;;;4953950;28;98646;-74
2023/03/22 07:49:37;;;;;;;11.07;5.88;;;13.90;99.90;;;;;;4954468;28;97939;-74
2023/03/22 07:52:11;;;;;;;8.70;5.90;;;14.00;99.90;;;;;;4953323;28;102315;-74
2023/03/22 07:54:39;;;;;;;8.30;5.78;;;14.00;99.90;;;;;;4953445;28;101172;-74
2023/03/22 07:57:07;;;;;;;7.95;5.30;;;14.10;99.90;;;;;;4953375;28;99243;-74
2023/03/22 07:59:42;;;;;;;14.52;6.65;;;14.20;99.90;;;;;;4938134;28;99276;-74
2023/03/22 08:02:10;;;;;;;7.90;4.93;;;14.50;99.90;;;;;;4936660;28;101656;-74
2023/03/22 08:04:45;;;;;;;9.55;5.20;;;14.70;99.90;;;;;;4953490;28;100945;-74
2023/03/22 08:07:36;;;;;;;7.90;4.93;;;14.80;99.90;;;;;;4940775;28;98603;-74
2023/03/22 08:10:04;;;;;;;8.15;5.57;;;14.80;99.90;;;;;;4953136;28;98609;-74
2023/03/22 08:12:32;;;;;;;11.30;5.85;;;14.80;99.90;;;;;;4953158;28;101355;-74
2023/03/22 08:15:08;;;;;;;6.57;4.47;;;14.70;99.90;;;;;;4953565;28;101222;-74
2023/03/22 08:17:35;;;;;;;11.23;5.22;;;14.50;99.90;;;;;;4953399;28;98611;-74
2023/03/22 08:20:07;;;;;;;11.00;5.10;;;14.40;99.90;;;;;;4953530;28;99306;-74
2023/03/22 08:22:44;;;;;;;8.23;4.53;;;14.30;99.90;;;;;;4952749;28;102341;-74
2023/03/22 08:25:17;;;;;;;6.13;4.57;;;14.20;99.90;;;;;;4966835;28;99458;-74
2023/03/22 08:27:44;;;;;;;11.13;4.78;;;14.10;99.90;;;;;;4953340;28;98678;-74
2023/03/22 08:30:13;;;;;;;8.77;4.88;;;14.20;99.90;;;;;;4953150;28;98485;-74
2023/03/22 08:32:42;;;;;;;6.10;4.63;;;14.30;99.90;;;;;;4937148;28;101342;-74
2023/03/22 08:35:09;;;;;;;9.20;4.70;;;14.30;99.90;;;;;;4952579;28;101519;-74
2023/03/22 08:37:36;;;;;;;9.48;4.30;;;14.30;99.90;;;;;;4953442;28;98585;-74
2023/03/22 08:40:08;;;;;;;12.35;4.78;;;14.30;99.90;;;;;;4953516;28;98441;-74
2023/03/22 08:42:43;;;;;;;6.53;4.07;;;14.30;99.90;;;;;;4952701;28;100563;-74
2023/03/22 08:45:10;;;;;;;6.60;4.15;;;14.30;99.90;;;;;;4952466;28;101434;-74
2023/03/22 08:47:45;;;;;;;9.52;5.13;;;14.50;99.90;;;;;;4967936;28;99369;-74
2023/03/22 08:50:12;;;;;;;9.65;4.43;;;14.60;99.90;;;;;;4936947;28;99127;-74
2023/03/22 08:52:48;;;;;;;11.38;5.15;;;14.70;99.90;;;;;;4952721;28;101207;-74
2023/03/22 08:55:23;;;;;;;8.00;4.45;;;14.70;99.90;;;;;;4952500;28;101455;-74
2023/03/22 08:57:57;;;;;;;8.23;3.80;;;14.70;99.90;;;;;;4954111;28;98540;-74
2023/03/22 09:00:42;;;;;;;7.53;3.75;;;14.60;99.90;;;;;;4969286;28;99163;-74
2023/03/22 09:03:23;;;;;;;9.18;4.65;;;14.70;99.90;;;;;;4952211;28;101435;-75
2023/03/22 09:05:51;;;;;;;8.88;3.92;;;14.60;99.90;;;;;;4936886;28;101191;-74
2023/03/22 09:08:18;;;;;;;6.60;4.03;;;14.60;99.90;;;;;;4969143;28;99002;-74
2023/03/22 09:10:50;;;;;;;9.15;3.72;;;14.70;99.90;;;;;;4952928;28;99509;-74
2023/03/22 09:13:20;;;;;;;9.85;4.03;;;14.80;99.90;;;;;;4951977;28;103021;-74
2023/03/22 09:15:53;;;;;;;7.03;3.63;;;14.90;99.90;;;;;;4953835;28;99760;-74
2023/03/22 09:18:26;;;;;;;5.38;3.25;;;15.10;99.90;;;;;;4953870;28;99517;-74
2023/03/22 09:20:57;;;;;;;9.55;3.88;;;15.20;99.90;;;;;;4954114;28;98999;-74
2023/03/22 09:23:31;;;;;;;7.85;3.97;;;15.10;99.90;;;;;;4951948;28;101510;-74
2023/03/22 09:26:00;;;;;;;8.82;3.75;;;15.20;99.90;;;;;;4952160;28;101452;-74
2023/03/22 09:28:28;;;;;;;6.18;3.60;;;15.20;99.90;;;;;;4952324;28;99203;-74
2023/03/22 09:31:07;;;;;;;8.23;3.88;;;15.20;99.90;;;;;;4952798;28;97846;-75
2023/03/22 09:33:35;;;;;;;10.15;4.00;;;15.30;99.90;;;;;;4951828;28;101821;-74
2023/03/22 09:36:03;;;;;;;7.20;3.40;;;15.30;99.90;;;;;;4968308;28;101423;-74
2023/03/22 09:38:32;;;;;;;7.07;3.35;;;15.30;99.90;;;;;;4951777;28;99309;-74
2023/03/22 09:41:28;;;;;;;6.88;3.22;;;15.40;99.90;;;;;;4952139;28;98583;-74
2023/03/22 09:43:59;;;;;;;9.25;3.90;;;15.50;99.90;;;;;;4951781;28;100476;-74
2023/03/22 09:46:36;;;;;;;10.10;3.75;;;15.40;99.90;;;;;;4967935;28;101556;-74
2023/03/22 09:49:09;;;;;;;8.25;3.30;;;15.40;99.90;;;;;;4968551;28;98505;-74
2023/03/22 09:51:40;;;;;;;11.82;3.53;;;15.30;99.90;;;;;;4952445;28;98965;-74
2023/03/22 09:54:44;;;;;;;8.18;3.38;;;15.30;99.90;;;;;;4953264;28;99163;-74
2023/03/22 09:57:35;;;;;;;10.30;4.10;;;15.40;99.90;;;;;;4892905;28;102035;-74
2023/03/22 10:00:32;;;;;;;5.78;3.22;;;15.40;99.90;;;;;;4951072;28;98564;-74
2023/03/22 10:03:21;;;;;;;8.10;3.70;;;15.40;99.90;;;;;;4968625;28;98594;-74
2023/03/22 10:06:00;;;;;;;9.15;3.35;;;15.50;99.90;;;;;;4967913;28;100002;-74
2023/03/22 10:08:48;;;;;;;7.93;3.22;;;15.40;99.90;;;;;;4951339;28;102198;-74
2023/03/22 10:11:26;;;;;;;10.60;3.38;;;15.30;99.90;;;;;;4953668;28;98614;-74
2023/03/22 10:14:19;;;;;;;9.25;4.22;;;15.30;99.90;;;;;;4952054;28;99025;-74
2023/03/22 10:16:47;;;;;;;5.22;3.40;;;15.20;99.90;;;;;;4930580;28;101999;-74
2023/03/22 10:19:30;;;;;;;10.23;3.22;;;15.00;99.90;;;;;;4934902;28;101876;-74
2023/03/22 10:22:00;;;;;;;8.40;3.55;;;15.00;99.90;;;;;;4968617;28;98652;-74
2023/03/22 10:24:37;;;;;;;10.38;3.28;;;14.80;99.90;;;;;;4955915;28;97811;-74
2023/03/22 10:27:15;;;;;;;5.65;3.03;;;14.90;99.90;;;;;;4959361;28;99394;-74
2023/03/22 10:29:49;;;;;;;9.35;3.50;;;14.80;99.90;;;;;;4973938;28;98843;-74
2023/03/22 10:32:20;;;;;;;6.55;3.38;;;14.70;99.90;;;;;;4959288;28;99382;-74
2023/03/22 10:34:48;;;;;;;6.97;3.03;;;14.60;99.90;;;;;;4941922;28;98612;-74
2023/03/22 10:37:32;;;;;;;9.63;3.85;;;14.60;99.90;;;;;;4957678;28;101840;-74
2023/03/22 10:40:08;;;;;;;8.35;3.33;;;14.60;99.90;;;;;;4957675;28;101540;-74
2023/03/22 10:42:38;;;;;;;10.07;3.70;;;14.60;99.90;;;;;;4959469;28;98503;-74
2023/03/22 10:45:11;;;;;;;8.57;3.78;;;14.50;99.90;;;;;;4941964;28;98522;-74
2023/03/22 10:47:43;;;;;;;8.05;3.13;;;14.50;99.90;;;;;;4958924;28;99227;-74
2023/03/22 10:50:21;;;;;;;6.43;3.78;;;14.50;99.90;;;;;;4974252;28;100018;-74
2023/03/22 10:53:01;;;;;;;8.63;3.95;;;14.40;99.90;;;;;;4957826;28;98628;-74
2023/03/22 10:55:29;;;;;;;8.07;3.83;;;14.40;99.90;;;;;;4959222;28;98535;-74
2023/03/22 10:58:16;;;;;;;10.27;3.97;;;14.30;99.90;;;;;;4958411;28;100022;-74
2023/03/22 11:01:06;;;;;;;7.88;3.72;;;14.30;99.90;;;;;;4957019;28;103833;-74
2023/03/22 11:03:42;;;;;;;7.82;3.53;;;14.30;99.90;;;;;;4959100;28;98503;-74
2023/03/22 11:06:09;;;;;;;9.35;4.10;;;14.30;99.90;;;;;;4974361;28;99182;-74
2023/03/22 11:08:47;;;;;;;8.20;4.28;;;14.30;99.90;;;;;;4973499;28;101732;-74
2023/03/22 11:11:25;;;;;;;6.60;4.10;;;14.30;99.90;;;;;;4958647;28;98976;-74
2023/03/22 11:14:00;;;;;;;5.68;3.17;;;14.30;99.90;;;;;;4958100;28;98972;-74
2023/03/22 11:16:30;;;;;;;4.22;3.45;;;14.30;99.90;;;;;;4957085;28;98199;-74
2023/03/22 11:19:01;;;;;;;11.20;4.57;;;14.30;99.90;;;;;;4958770;28;100268;-74
2023/03/22 11:21:31;;;;;;;7.47;3.67;;;14.40;99.90;;;;;;4973461;28;101516;-74
2023/03/22 11:24:12;;;;;;;8.77;3.35;;;14.40;99.90;;;;;;4941057;28;99338;-74
2023/03/22 11:26:40;;;;;;;6.25;3.70;;;14.40;99.90;;;;;;4973631;28;98579;-74
2023/03/22 11:29:17;;;;;;;8.25;3.70;;;14.30;99.90;;;;;;4958335;28;104234;-74
2023/03/22 11:31:59;;;;;;;9.45;3.80;;;14.40;99.90;;;;;;4956847;28;104056;-74
2023/03/22 11:34:29;;;;;;;7.60;4.15;;;14.30;99.90;;;;;;4957204;28;98619;-74
2023/03/22 11:36:59;;;;;;;8.02;3.58;;;14.20;99.90;;;;;;4953283;28;98546;-74
2023/03/22 11:39:28;;;;;;;9.20;3.70;;;14.20;99.90;;;;;;4970295;28;99386;-74
2023/03/22 11:42:00;;;;;;;6.50;3.35;;;14.10;99.90;;;;;;4954071;28;101550;-74
2023/03/22 11:44:33;;;;;;;6.35;3.45;;;14.20;99.90;;;;;;4970411;28;98561;-74
2023/03/22 11:47:02;;;;;;;6.75;3.72;;;14.20;99.90;;;;;;4953960;28;98576;-74
2023/03/22 11:49:39;;;;;;;8.68;3.80;;;14.30;99.90;;;;;;4954553;28;100109;-74
2023/03/22 11:52:14;;;;;;;7.68;3.15;;;14.30;99.90;;;;;;4955059;28;99703;-74
2023/03/22 11:54:44;;;;;;;5.72;3.10;;;14.30;99.90;;;;;;4955283;28;98435;-74
2023/03/22 11:57:20;;;;;;;7.38;3.15;;;14.30;99.90;;;;;;4955222;28;98524;-73
2023/03/22 12:00:25;;;;;;;8.80;4.03;;;14.50;99.90;;;;;;4955058;28;99295;-74
2023/03/22 12:03:12;;;;;;;7.28;3.22;;;14.50;99.90;;;;;;4921713;28;98787;-74
2023/03/22 12:05:43;;;;;;;6.57;3.03;;;14.50;99.90;;;;;;4955290;28;98607;-74
2023/03/22 12:08:22;;;;;;;8.73;3.45;;;14.40;99.90;;;;;;4955600;28;97832;-73
2023/03/22 12:11:04;;;;;;;4.93;3.00;;;14.50;99.90;;;;;;4954939;28;99340;-74
2023/03/22 12:14:03;;;;;;;6.50;2.92;;;14.40;99.90;;;;;;4953267;28;102475;-74
2023/03/22 12:17:03;;;;;;;7.03;3.33;;;14.50;99.90;;;;;;4969345;28;99303;-73
2023/03/22 12:19:52;;;;;;;9.55;3.33;;;14.40;99.90;;;;;;4939127;28;98788;-74
2023/03/22 12:22:30;;;;;;;4.85;3.42;;;14.40;99.90;;;;;;4954503;28;99543;-74
2023/03/22 12:24:59;;;;;;;6.43;3.00;;;14.30;99.90;;;;;;4953082;28;101565;-74
2023/03/22 12:27:36;;;;;;;6.72;3.47;;;14.30;99.90;;;;;;4953459;28;98579;-74
2023/03/22 12:30:42;;;;;;;4.95;2.90;;;14.40;99.90;;;;;;4954896;28;98591;-74
2023/03/22 12:33:34;;;;;;;7.32;3.15;;;14.30;99.90;;;;;;4944819;28;101805;-74
2023/03/22 12:36:04;;;;;;;6.57;3.53;;;14.30;99.90;;;;;;4954754;28;99100;-74
2023/03/22 12:38:40;;;;;;;5.57;3.35;;;14.20;99.90;;;;;;4954694;28;98668;-74
2023/03/22 12:41:13;;;;;;;5.22;2.92;;;14.20;99.90;;;;;;4953137;28;98634;-74
2023/03/22 12:43:46;;;;;;;;;;;14.10;99.90;;;;;;4968903;28;102526;-74
2023/03/22 12:46:22;;;;;;;4.90;3.55;;;13.90;99.90;;;;;;4986418;28;99446;-74
2023/03/22 12:49:25;;;;;;;6.05;3.47;;;13.80;99.90;;;;;;4954668;28;98708;-74
2023/03/22 12:51:56;;;;;;;5.90;2.92;;;13.80;99.90;;;;;;4951783;28;99052;-74
2023/03/22 12:54:25;;;;;;;5.43;3.20;;;13.70;99.90;;;;;;4954332;28;99243;-74
2023/03/22 12:56:53;;;;;;;4.40;3.05;;;13.70;99.90;;;;;;4968427;28;101558;-74
2023/03/22 12:59:28;;;;;;;7.70;3.35;;;13.70;99.90;;;;;;4953172;28;98540;-74
2023/03/22 13:02:26;;;;;;;10.13;3.40;;;13.80;99.90;;;;;;4954542;28;97941;-73
2023/03/22 13:04:55;;;;;;;4.43;3.13;;;13.70;99.90;;;;;;4950219;28;99449;-74
2023/03/22 13:07:47;;;;;;;7.07;3.30;;;13.60;99.90;;;;;;4953675;28;99084;-74
2023/03/22 13:10:29;;;;;;;8.07;3.60;;;13.70;99.90;;;;;;4952474;28;99326;-74
2023/03/22 13:13:17;;;;;;;8.73;3.50;;;13.70;99.90;;;;;;4969022;28;98628;-74
2023/03/22 13:16:21;;;;;;;6.05;3.22;;;13.70;99.90;;;;;;4953997;28;99315;-74
2023/03/22 13:18:48;;;;;;;9.45;3.97;;;13.70;99.90;;;;;;4953775;28;99060;-74